FW0710 Weather Reports


Display with metric or nautical units.
time (UTC)temp
F
wind
direction
speed
MPH
gust
MPH
rain 1hr
in
rain 24hr
in
rain mn
in
humidity
%
barometer
mb
20190323100441 15 214 0.0 1.0 0.00 0.00 0.00 93 1022.0
20190323093439 14 263 0.0 2.0 0.00 0.00 0.00 91 1021.6
20190323090441 14 263 0.0 2.0 0.00 0.00 0.00 91 1021.6
20190323083439 14 263 0.0 2.0 0.00 0.00 0.00 91 1022.1
20190323080437 14 263 1.0 2.0 0.00 0.00 0.00 91 1022.1
20190323073436 15 263 0.0 0.0 0.00 0.00 0.00 92 1022.4
20190323070437 15 263 0.0 0.0 0.00 0.00 0.00 90 1022.4
20190323063438 17 263 0.0 0.0 0.00 0.00 0.00 89 1022.5
20190323060438 19 263 0.0 0.0 0.00 0.00 0.00 91 1022.6
20190323053439 19 263 0.0 0.0 0.00 0.00 0.00 88 1022.6
20190323053217 19 263 0.0 0.0 0.00 0.00 0.00 88 1022.6
20190323050454 20 263 0.0 0.0 0.00 0.00 0.00 89 1023.0
20190323043454 21 263 0.0 1.0 0.00 0.00 0.00 87 1023.1
20190323040453 24 263 0.0 2.0 0.00 0.00 0.00 87 1023.2
20190323033454 25 263 0.0 0.0 0.00 0.00 0.00 82 1023.2
20190323030454 26 263 0.0 0.0 0.00 0.00 0.00 81 1023.1
20190323023453 27 263 0.0 0.0 0.00 0.00 0.00 82 1023.1
20190323020452 30 263 0.0 0.0 0.00 0.00 0.00 77 1023.2
20190323013452 32 263 0.0 0.0 0.00 0.00 0.00 74 1023.1
20190323010449 36 263 1.0 6.0 0.00 0.00 0.00 66 1023.3
20190323003449 38 287 2.0 4.0 0.00 0.00 0.00 63 1023.2
20190323000447 42 284 2.0 4.0 0.00 0.00 0.00 57 1023.5
20190322233449 44 292 2.0 4.0 0.00 0.00 0.00 55 1023.5
20190322230446 46 223 2.0 5.0 0.00 0.00 0.00 58 1023.8
20190322223447 50 205 1.0 4.0 0.00 0.00 0.00 49 1023.6
20190322220448 48 208 2.0 4.0 0.00 0.00 0.00 54 1023.8
20190322213444 48 215 1.0 6.0 0.00 0.00 0.00 52 1023.9
20190322210445 44 180 3.0 6.0 0.00 0.00 0.00 56 1024.0
20190322203445 44 140 4.0 5.0 0.00 0.00 0.00 51 1024.1
20190322200445 46 224 1.0 7.0 0.00 0.00 0.00 55 1024.3
20190322193445 44 217 2.0 5.0 0.00 0.00 0.00 55 1024.5
20190322190444 42 232 2.0 6.0 0.00 0.00 0.00 60 1025.0
20190322183444 42 223 2.0 5.0 0.00 0.00 0.00 62 1025.0
20190322180444 42 226 2.0 5.0 0.00 0.00 0.00 60 1025.1
20190322173444 42 217 1.0 4.0 0.00 0.00 0.00 58 1024.9
20190322170444 40 125 3.0 6.0 0.00 0.00 0.00 60 1025.1
20190322163444 44 81 0.0 2.0 0.00 0.00 0.00 60 1025.2
20190322160443 39 68 1.0 5.0 0.00 0.00 0.00 70 1025.5
20190322153442 37 62 3.0 5.0 0.00 0.00 0.00 71 1025.3
20190322150442 33 355 2.0 4.0 0.00 0.00 0.00 80 1025.3
20190322143442 31 298 1.0 2.0 0.00 0.00 0.00 82 1025.1
20190322140441 25 298 1.0 3.0 0.00 0.00 0.00 89 1025.1
20190322133440 21 272 1.0 2.0 0.00 0.00 0.00 94 1025.5
20190322130439 19 272 1.0 3.0 0.00 0.00 0.00 91 1025.1
20190322123440 20 284 1.0 4.0 0.00 0.00 0.00 94 1024.7
20190322120438 19 315 2.0 4.0 0.00 0.00 0.00 92 1024.4
20190322113437 20 281 3.0 5.0 0.00 0.00 0.00 94 1024.2
20190322110437 20 244 1.0 3.0 0.00 0.00 0.00 95 1024.0
20190322103435 20 244 0.0 4.0 0.00 0.00 0.00 91 1023.4